sensor_id;sensor_type;location;lat;lon;timestamp;pressure;altitude;pressure_sealevel;temperature;humidity
79347;BME280;68815;48.810;44.482;2024-01-25T00:00:07;101185;;;-10.1;73.3
79347;BME280;68815;48.810;44.482;2024-01-25T00:03:10;101173;;;-10.3;73
79347;BME280;68815;48.810;44.482;2024-01-25T00:06:11;101177;;;-10.2;72.8
79347;BME280;68815;48.810;44.482;2024-01-25T00:09:13;101176;;;-10.2;72.9
79347;BME280;68815;48.810;44.482;2024-01-25T00:12:15;101158;;;-10;72.2
79347;BME280;68815;48.810;44.482;2024-01-25T00:15:17;101150;;;-10.1;71.5
79347;BME280;68815;48.810;44.482;2024-01-25T00:18:20;101143;;;-10.1;72.2
79347;BME280;68815;48.810;44.482;2024-01-25T00:21:22;101136;;;-10.1;72
79347;BME280;68815;48.810;44.482;2024-01-25T00:24:25;101150;;;-10.1;72.5
79347;BME280;68815;48.810;44.482;2024-01-25T00:27:27;101148;;;-9.9;72
79347;BME280;68815;48.810;44.482;2024-01-25T00:30:29;101141;;;-10;71.6
79347;BME280;68815;48.810;44.482;2024-01-25T00:33:31;101141;;;-9.9;71
79347;BME280;68815;48.810;44.482;2024-01-25T00:36:33;101142;;;-9.9;70.5
79347;BME280;68815;48.810;44.482;2024-01-25T00:39:35;101140;;;-10.1;71
79347;BME280;68815;48.810;44.482;2024-01-25T00:42:41;101127;;;-10.2;71.8
79347;BME280;68815;48.810;44.482;2024-01-25T00:45:44;101118;;;-10.1;72.1
79347;BME280;68815;48.810;44.482;2024-01-25T00:48:46;101103;;;-10.1;70.9
79347;BME280;68815;48.810;44.482;2024-01-25T00:51:50;101111;;;-10.2;71.4
79347;BME280;68815;48.810;44.482;2024-01-25T00:54:56;101106;;;-10.2;71.3
79347;BME280;68815;48.810;44.482;2024-01-25T00:57:58;101108;;;-10.1;71.3
79347;BME280;68815;48.810;44.482;2024-01-25T01:01:01;101108;;;-10.1;70.9
79347;BME280;68815;48.810;44.482;2024-01-25T01:04:03;101111;;;-10.1;70.8
79347;BME280;68815;48.810;44.482;2024-01-25T01:07:06;101121;;;-10;70.4
79347;BME280;68815;48.810;44.482;2024-01-25T01:10:08;101118;;;-10.1;69.5
79347;BME280;68815;48.810;44.482;2024-01-25T01:13:10;101120;;;-10.1;69.9
79347;BME280;68815;48.810;44.482;2024-01-25T01:16:12;101120;;;-10;69.5
79347;BME280;68815;48.810;44.482;2024-01-25T01:19:14;101128;;;-9.6;68.8
79347;BME280;68815;48.810;44.482;2024-01-25T01:22:16;101131;;;-9.3;68.3
79347;BME280;68815;48.810;44.482;2024-01-25T01:25:18;101123;;;-8.9;67.5
79347;BME280;68815;48.810;44.482;2024-01-25T01:28:20;101109;;;-9.3;65.2
79347;BME280;68815;48.810;44.482;2024-01-25T01:31:22;101092;;;-9.6;66.4
79347;BME280;68815;48.810;44.482;2024-01-25T01:34:24;101099;;;-9.8;67.5
79347;BME280;68815;48.810;44.482;2024-01-25T01:37:27;101092;;;-10.1;67.2
79347;BME280;68815;48.810;44.482;2024-01-25T01:40:29;101093;;;-10;67.9
79347;BME280;68815;48.810;44.482;2024-01-25T01:43:31;101092;;;-10.1;68
79347;BME280;68815;48.810;44.482;2024-01-25T01:46:34;101091;;;-10.1;68.3
79347;BME280;68815;48.810;44.482;2024-01-25T01:49:37;101100;;;-10.3;69.3
79347;BME280;68815;48.810;44.482;2024-01-25T01:52:39;101096;;;-10;68.9
79347;BME280;68815;48.810;44.482;2024-01-25T01:55:42;101100;;;-9.9;68.1
79347;BME280;68815;48.810;44.482;2024-01-25T01:58:44;101109;;;-9.6;68.3
79347;BME280;68815;48.810;44.482;2024-01-25T02:01:47;101116;;;-9.4;67
79347;BME280;68815;48.810;44.482;2024-01-25T02:04:49;101108;;;-9.4;65.4
79347;BME280;68815;48.810;44.482;2024-01-25T02:07:51;101117;;;-9.3;66.4
79347;BME280;68815;48.810;44.482;2024-01-25T02:10:53;101110;;;-9.2;65.4
79347;BME280;68815;48.810;44.482;2024-01-25T02:13:55;101111;;;-9.1;64.7
79347;BME280;68815;48.810;44.482;2024-01-25T02:16:57;101095;;;-9.6;65.2
79347;BME280;68815;48.810;44.482;2024-01-25T02:19:59;101081;;;-9.6;65.5
79347;BME280;68815;48.810;44.482;2024-01-25T02:23:00;101074;;;-9.8;66.4
79347;BME280;68815;48.810;44.482;2024-01-25T02:26:02;101063;;;-10;66.3
79347;BME280;68815;48.810;44.482;2024-01-25T02:29:04;101053;;;-10.2;66.3
79347;BME280;68815;48.810;44.482;2024-01-25T02:32:07;101047;;;-10.1;67.5
79347;BME280;68815;48.810;44.482;2024-01-25T02:35:09;101043;;;-10.2;67.1
79347;BME280;68815;48.810;44.482;2024-01-25T02:38:11;101039;;;-10.2;66.5
79347;BME280;68815;48.810;44.482;2024-01-25T02:41:13;101042;;;-10.2;66.8
79347;BME280;68815;48.810;44.482;2024-01-25T02:44:15;101031;;;-10.1;66.4
79347;BME280;68815;48.810;44.482;2024-01-25T02:47:17;101022;;;-10;67.1
79347;BME280;68815;48.810;44.482;2024-01-25T02:50:19;101018;;;-10.1;67.6
79347;BME280;68815;48.810;44.482;2024-01-25T02:53:21;101019;;;-10.3;68.1
79347;BME280;68815;48.810;44.482;2024-01-25T02:56:24;101006;;;-10.3;67.5
79347;BME280;68815;48.810;44.482;2024-01-25T02:59:25;101005;;;-10.3;68.6
79347;BME280;68815;48.810;44.482;2024-01-25T03:02:27;101011;;;-10.3;68.1
79347;BME280;68815;48.810;44.482;2024-01-25T03:05:29;101021;;;-9.9;67.7
79347;BME280;68815;48.810;44.482;2024-01-25T03:08:31;101011;;;-9.7;65.8
79347;BME280;68815;48.810;44.482;2024-01-25T03:11:33;101003;;;-10;65.9
79347;BME280;68815;48.810;44.482;2024-01-25T03:14:35;101010;;;-10;65.9
79347;BME280;68815;48.810;44.482;2024-01-25T03:17:37;101002;;;-9.9;65.7
79347;BME280;68815;48.810;44.482;2024-01-25T03:20:39;101000;;;-10.3;69.2
79347;BME280;68815;48.810;44.482;2024-01-25T03:23:40;100992;;;-10.7;71.8
79347;BME280;68815;48.810;44.482;2024-01-25T03:26:42;100996;;;-10.5;71.6
79347;BME280;68815;48.810;44.482;2024-01-25T03:29:44;100994;;;-10.4;71.7
79347;BME280;68815;48.810;44.482;2024-01-25T03:32:46;100993;;;-10.5;72.2
79347;BME280;68815;48.810;44.482;2024-01-25T03:35:48;101001;;;-10.2;71.4
79347;BME280;68815;48.810;44.482;2024-01-25T03:38:50;100986;;;-10.3;70.9
79347;BME280;68815;48.810;44.482;2024-01-25T03:41:52;100982;;;-10.4;71.6
79347;BME280;68815;48.810;44.482;2024-01-25T03:44:54;100983;;;-10.5;70.3
79347;BME280;68815;48.810;44.482;2024-01-25T03:47:55;100985;;;-10.4;70.6
79347;BME280;68815;48.810;44.482;2024-01-25T03:50:57;100978;;;-10.8;70.4
79347;BME280;68815;48.810;44.482;2024-01-25T03:54:00;100967;;;-11;71.3
79347;BME280;68815;48.810;44.482;2024-01-25T03:57:02;100969;;;-10.9;71.6
79347;BME280;68815;48.810;44.482;2024-01-25T04:00:07;100973;;;-10.8;71.4
79347;BME280;68815;48.810;44.482;2024-01-25T04:03:09;100949;;;-10.9;71.7
79347;BME280;68815;48.810;44.482;2024-01-25T04:06:11;100952;;;-11.1;72.2
79347;BME280;68815;48.810;44.482;2024-01-25T04:09:14;100949;;;-11;72.6
79347;BME280;68815;48.810;44.482;2024-01-25T04:12:16;100951;;;-11.1;73.2
79347;BME280;68815;48.810;44.482;2024-01-25T04:15:18;100944;;;-11.1;73.5
79347;BME280;68815;48.810;44.482;2024-01-25T04:18:19;100939;;;-10.9;73.8
79347;BME280;68815;48.810;44.482;2024-01-25T04:21:21;100942;;;-11.1;74.7
79347;BME280;68815;48.810;44.482;2024-01-25T04:24:23;100936;;;-10.8;73.9
79347;BME280;68815;48.810;44.482;2024-01-25T04:27:25;100931;;;-11.2;75
79347;BME280;68815;48.810;44.482;2024-01-25T04:30:27;100934;;;-11;74.4
79347;BME280;68815;48.810;44.482;2024-01-25T04:33:29;100937;;;-11.2;74.6
79347;BME280;68815;48.810;44.482;2024-01-25T04:36:31;100944;;;-11.3;75
79347;BME280;68815;48.810;44.482;2024-01-25T04:39:33;100939;;;-11.2;75.3
79347;BME280;68815;48.810;44.482;2024-01-25T04:42:35;100928;;;-11.1;75
79347;BME280;68815;48.810;44.482;2024-01-25T04:45:37;100935;;;-11.1;75.3
79347;BME280;68815;48.810;44.482;2024-01-25T04:48:39;100938;;;-10.9;74.5
79347;BME280;68815;48.810;44.482;2024-01-25T04:51:40;100934;;;-10.8;73.8
79347;BME280;68815;48.810;44.482;2024-01-25T04:54:42;100936;;;-10.7;73.6
79347;BME280;68815;48.810;44.482;2024-01-25T04:57:44;100930;;;-10.6;74.1
79347;BME280;68815;48.810;44.482;2024-01-25T05:00:47;100935;;;-10.5;73.2
79347;BME280;68815;48.810;44.482;2024-01-25T05:03:50;100936;;;-11.1;74.4
79347;BME280;68815;48.810;44.482;2024-01-25T05:06:51;100929;;;-11.1;75.6
79347;BME280;68815;48.810;44.482;2024-01-25T05:09:53;100915;;;-11.1;75.3
79347;BME280;68815;48.810;44.482;2024-01-25T05:12:55;100913;;;-11;74.9
79347;BME280;68815;48.810;44.482;2024-01-25T05:15:57;100914;;;-11.1;75.6
79347;BME280;68815;48.810;44.482;2024-01-25T05:18:59;100912;;;-11.4;76.3
79347;BME280;68815;48.810;44.482;2024-01-25T05:22:00;100898;;;-10.9;75.3
79347;BME280;68815;48.810;44.482;2024-01-25T05:25:02;100903;;;-10.9;74.5
79347;BME280;68815;48.810;44.482;2024-01-25T05:28:05;100891;;;-11.1;75.1
79347;BME280;68815;48.810;44.482;2024-01-25T05:31:07;100884;;;-11.1;75
79347;BME280;68815;48.810;44.482;2024-01-25T05:34:09;100880;;;-11.1;75.1
79347;BME280;68815;48.810;44.482;2024-01-25T05:37:11;100854;;;-11.2;75.2
79347;BME280;68815;48.810;44.482;2024-01-25T05:40:13;100867;;;-11.1;76
79347;BME280;68815;48.810;44.482;2024-01-25T05:43:15;100857;;;-11.2;76.8
79347;BME280;68815;48.810;44.482;2024-01-25T05:46:17;100847;;;-11.1;77.4
79347;BME280;68815;48.810;44.482;2024-01-25T05:49:19;100831;;;-11.2;77.7
79347;BME280;68815;48.810;44.482;2024-01-25T05:52:20;100831;;;-11.2;75.9
79347;BME280;68815;48.810;44.482;2024-01-25T05:55:22;100838;;;-11.4;76.8
79347;BME280;68815;48.810;44.482;2024-01-25T05:58:24;100840;;;-11.3;77.5
79347;BME280;68815;48.810;44.482;2024-01-25T06:01:26;100848;;;-11.3;77.5
79347;BME280;68815;48.810;44.482;2024-01-25T06:04:28;100825;;;-11.2;77.4
79347;BME280;68815;48.810;44.482;2024-01-25T06:07:30;100832;;;-10.8;76.4
79347;BME280;68815;48.810;44.482;2024-01-25T06:10:32;100834;;;-10.8;75.3
79347;BME280;68815;48.810;44.482;2024-01-25T06:13:34;100834;;;-11;75.2
79347;BME280;68815;48.810;44.482;2024-01-25T06:16:36;100845;;;-10.6;75
79347;BME280;68815;48.810;44.482;2024-01-25T06:19:38;100830;;;-10.5;74.5
79347;BME280;68815;48.810;44.482;2024-01-25T06:22:40;100825;;;-10.3;73.7
79347;BME280;68815;48.810;44.482;2024-01-25T06:25:41;100833;;;-10.8;74.2
79347;BME280;68815;48.810;44.482;2024-01-25T06:28:43;100841;;;-10.2;74.2
79347;BME280;68815;48.810;44.482;2024-01-25T06:31:45;100841;;;-10;72.8
79347;BME280;68815;48.810;44.482;2024-01-25T06:34:47;100848;;;-9.9;71.5
79347;BME280;68815;48.810;44.482;2024-01-25T06:37:49;100833;;;-10.1;72.5
79347;BME280;68815;48.810;44.482;2024-01-25T06:40:51;100834;;;-10.2;72.1
79347;BME280;68815;48.810;44.482;2024-01-25T06:43:52;100842;;;-10.5;73
79347;BME280;68815;48.810;44.482;2024-01-25T06:46:54;100832;;;-10.1;73.3
79347;BME280;68815;48.810;44.482;2024-01-25T06:49:56;100816;;;-10.4;73.8
79347;BME280;68815;48.810;44.482;2024-01-25T06:52:58;100824;;;-10.2;73.4
79347;BME280;68815;48.810;44.482;2024-01-25T06:56:00;100815;;;-10.1;73.5
79347;BME280;68815;48.810;44.482;2024-01-25T06:59:01;100811;;;-9.9;72.6
79347;BME280;68815;48.810;44.482;2024-01-25T07:02:03;100812;;;-9.7;72
79347;BME280;68815;48.810;44.482;2024-01-25T07:05:06;100832;;;-10;73.1
79347;BME280;68815;48.810;44.482;2024-01-25T07:08:08;100828;;;-10;73.7
79347;BME280;68815;48.810;44.482;2024-01-25T07:11:10;100824;;;-10.1;73.1
79347;BME280;68815;48.810;44.482;2024-01-25T07:14:12;100821;;;-9.9;73
79347;BME280;68815;48.810;44.482;2024-01-25T07:17:14;100820;;;-9.2;72
79347;BME280;68815;48.810;44.482;2024-01-25T07:20:16;100819;;;-9.6;71.3
79347;BME280;68815;48.810;44.482;2024-01-25T07:23:18;100817;;;-9.3;71.5
79347;BME280;68815;48.810;44.482;2024-01-25T07:26:20;100820;;;-8.3;70.3
79347;BME280;68815;48.810;44.482;2024-01-25T07:29:22;100822;;;-7.9;67.9
79347;BME280;68815;48.810;44.482;2024-01-25T07:32:24;100818;;;-8.2;67.9
79347;BME280;68815;48.810;44.482;2024-01-25T07:35:26;100828;;;-8.8;68.5
79347;BME280;68815;48.810;44.482;2024-01-25T07:38:28;100819;;;-8.1;68.4
79347;BME280;68815;48.810;44.482;2024-01-25T07:41:29;100822;;;-7.7;67.8
79347;BME280;68815;48.810;44.482;2024-01-25T07:44:31;100827;;;-7.9;65.8
79347;BME280;68815;48.810;44.482;2024-01-25T07:47:33;100808;;;-8;67.5
79347;BME280;68815;48.810;44.482;2024-01-25T07:50:35;100799;;;-7.9;67.7
79347;BME280;68815;48.810;44.482;2024-01-25T07:53:37;100784;;;-8.2;67.3
79347;BME280;68815;48.810;44.482;2024-01-25T07:56:38;100789;;;-7.6;67.6
79347;BME280;68815;48.810;44.482;2024-01-25T07:59:40;100783;;;-7.5;67.5
79347;BME280;68815;48.810;44.482;2024-01-25T08:02:42;100777;;;-7.8;66
79347;BME280;68815;48.810;44.482;2024-01-25T08:05:45;100764;;;-8.2;67.4
79347;BME280;68815;48.810;44.482;2024-01-25T08:08:47;100746;;;-8.2;68.3
79347;BME280;68815;48.810;44.482;2024-01-25T08:11:49;100745;;;-9;70.7
79347;BME280;68815;48.810;44.482;2024-01-25T08:14:51;100741;;;-9.2;71.7
79347;BME280;68815;48.810;44.482;2024-01-25T08:17:53;100717;;;-9;72.1
79347;BME280;68815;48.810;44.482;2024-01-25T08:20:55;100731;;;-8.3;70.6
79347;BME280;68815;48.810;44.482;2024-01-25T08:23:57;100721;;;-8.7;71.1
79347;BME280;68815;48.810;44.482;2024-01-25T08:26:58;100715;;;-9;72
79347;BME280;68815;48.810;44.482;2024-01-25T08:30:00;100718;;;-8.3;71.5
79347;BME280;68815;48.810;44.482;2024-01-25T08:33:02;100720;;;-7.7;69.2
79347;BME280;68815;48.810;44.482;2024-01-25T08:36:04;100697;;;-8.1;68.1
79347;BME280;68815;48.810;44.482;2024-01-25T08:39:06;100690;;;-8.5;69.9
79347;BME280;68815;48.810;44.482;2024-01-25T08:42:08;100701;;;-8.6;70.8
79347;BME280;68815;48.810;44.482;2024-01-25T08:45:10;100702;;;-8.8;71.1
79347;BME280;68815;48.810;44.482;2024-01-25T08:48:12;100691;;;-8.9;72
79347;BME280;68815;48.810;44.482;2024-01-25T08:51:14;100693;;;-8.1;71.2
79347;BME280;68815;48.810;44.482;2024-01-25T08:54:16;100690;;;-7.8;69.8
79347;BME280;68815;48.810;44.482;2024-01-25T08:57:17;100693;;;-7.9;69.2
79347;BME280;68815;48.810;44.482;2024-01-25T09:00:19;100688;;;-8.1;69.7
79347;BME280;68815;48.810;44.482;2024-01-25T09:03:21;100699;;;-7.9;70.9
79347;BME280;68815;48.810;44.482;2024-01-25T09:06:24;100684;;;-8.1;71.4
79347;BME280;68815;48.810;44.482;2024-01-25T09:09:26;100680;;;-8.3;70.7
79347;BME280;68815;48.810;44.482;2024-01-25T09:12:28;100673;;;-8.3;71.9
79347;BME280;68815;48.810;44.482;2024-01-25T09:15:30;100662;;;-8;71.6
79347;BME280;68815;48.810;44.482;2024-01-25T09:18:31;100653;;;-8;71.1
79347;BME280;68815;48.810;44.482;2024-01-25T09:21:33;100655;;;-8;71.9
79347;BME280;68815;48.810;44.482;2024-01-25T09:24:35;100661;;;-8.1;71.8
79347;BME280;68815;48.810;44.482;2024-01-25T09:27:37;100648;;;-8.2;72.6
79347;BME280;68815;48.810;44.482;2024-01-25T09:30:39;100643;;;-8.1;72.9
79347;BME280;68815;48.810;44.482;2024-01-25T09:33:42;100644;;;-7.8;72.6
79347;BME280;68815;48.810;44.482;2024-01-25T09:36:44;100642;;;-7.7;70.9
79347;BME280;68815;48.810;44.482;2024-01-25T09:39:46;100634;;;-7.7;72.4
79347;BME280;68815;48.810;44.482;2024-01-25T09:42:48;100624;;;-7.4;71.2
79347;BME280;68815;48.810;44.482;2024-01-25T09:45:53;100636;;;-7.6;71.8
79347;BME280;68815;48.810;44.482;2024-01-25T09:48:55;100648;;;-7.7;72.3
79347;BME280;68815;48.810;44.482;2024-01-25T09:51:58;100629;;;-7.7;73.2
79347;BME280;68815;48.810;44.482;2024-01-25T09:55:05;100606;;;-7;72.7
79347;BME280;68815;48.810;44.482;2024-01-25T09:58:08;100619;;;-6.9;71.3
79347;BME280;68815;48.810;44.482;2024-01-25T10:01:11;100610;;;-7.2;70.5
79347;BME280;68815;48.810;44.482;2024-01-25T10:04:13;100602;;;-7.7;72.6
79347;BME280;68815;48.810;44.482;2024-01-25T10:07:15;100596;;;-7.3;72.5
79347;BME280;68815;48.810;44.482;2024-01-25T10:10:17;100597;;;-7.3;73.8
79347;BME280;68815;48.810;44.482;2024-01-25T10:13:19;100594;;;-7.1;72.2
79347;BME280;68815;48.810;44.482;2024-01-25T10:16:21;100608;;;-7.3;71.9
79347;BME280;68815;48.810;44.482;2024-01-25T10:19:25;100611;;;-7.6;74
79347;BME280;68815;48.810;44.482;2024-01-25T10:22:27;100601;;;-7;73.8
79347;BME280;68815;48.810;44.482;2024-01-25T10:25:29;100607;;;-7.4;75
79347;BME280;68815;48.810;44.482;2024-01-25T10:28:31;100593;;;-7;73.4
79347;BME280;68815;48.810;44.482;2024-01-25T10:31:38;100606;;;-6.9;73.3
79347;BME280;68815;48.810;44.482;2024-01-25T10:34:42;100595;;;-6.9;73.7
79347;BME280;68815;48.810;44.482;2024-01-25T10:37:45;100589;;;-7.2;75
79347;BME280;68815;48.810;44.482;2024-01-25T10:40:47;100560;;;-7.1;75.5
79347;BME280;68815;48.810;44.482;2024-01-25T10:43:49;100563;;;-7.2;74.9
79347;BME280;68815;48.810;44.482;2024-01-25T10:46:51;100562;;;-7.1;75.8
79347;BME280;68815;48.810;44.482;2024-01-25T10:49:54;100564;;;-7.5;75.9
79347;BME280;68815;48.810;44.482;2024-01-25T10:52:56;100566;;;-7.4;76.8
79347;BME280;68815;48.810;44.482;2024-01-25T10:55:59;100554;;;-7;76.3
79347;BME280;68815;48.810;44.482;2024-01-25T10:59:02;100539;;;-7.4;77.1
79347;BME280;68815;48.810;44.482;2024-01-25T11:02:05;100541;;;-7.3;76.7
79347;BME280;68815;48.810;44.482;2024-01-25T11:05:09;100529;;;-7.3;77
79347;BME280;68815;48.810;44.482;2024-01-25T11:08:17;100553;;;-7.5;78.2
79347;BME280;68815;48.810;44.482;2024-01-25T11:11:21;100544;;;-7.4;78.9
79347;BME280;68815;48.810;44.482;2024-01-25T11:14:25;100543;;;-7.6;79.6
79347;BME280;68815;48.810;44.482;2024-01-25T11:17:31;100540;;;-7.5;79.2
79347;BME280;68815;48.810;44.482;2024-01-25T11:20:35;100529;;;-7.4;79.9
79347;BME280;68815;48.810;44.482;2024-01-25T11:23:43;100529;;;-7.3;79.6
79347;BME280;68815;48.810;44.482;2024-01-25T11:26:46;100533;;;-7.8;81
79347;BME280;68815;48.810;44.482;2024-01-25T11:29:48;100530;;;-7.7;81.4
79347;BME280;68815;48.810;44.482;2024-01-25T11:32:50;100534;;;-7.7;82.7
79347;BME280;68815;48.810;44.482;2024-01-25T11:35:54;100555;;;-7.6;83.4
79347;BME280;68815;48.810;44.482;2024-01-25T11:38:57;100569;;;-7.2;82.7
79347;BME280;68815;48.810;44.482;2024-01-25T11:41:59;100571;;;-6.8;81.9
79347;BME280;68815;48.810;44.482;2024-01-25T11:45:01;100552;;;-6.3;80.3
79347;BME280;68815;48.810;44.482;2024-01-25T11:48:07;100582;;;-6.3;80.4
79347;BME280;68815;48.810;44.482;2024-01-25T11:51:10;100570;;;-6.4;80.6
79347;BME280;68815;48.810;44.482;2024-01-25T11:54:11;100575;;;-6.3;81.1
79347;BME280;68815;48.810;44.482;2024-01-25T11:57:13;100586;;;-6.1;80.4
79347;BME280;68815;48.810;44.482;2024-01-25T12:00:16;100585;;;-6.1;80.1
79347;BME280;68815;48.810;44.482;2024-01-25T12:03:19;100572;;;-6.1;80.2
79347;BME280;68815;48.810;44.482;2024-01-25T12:06:21;100577;;;-6.3;81.1
79347;BME280;68815;48.810;44.482;2024-01-25T12:09:23;100571;;;-6.4;82
79347;BME280;68815;48.810;44.482;2024-01-25T12:12:27;100575;;;-6.6;83.1
79347;BME280;68815;48.810;44.482;2024-01-25T12:15:31;100582;;;-6.8;83.6
79347;BME280;68815;48.810;44.482;2024-01-25T12:18:33;100571;;;-6.6;83.8
79347;BME280;68815;48.810;44.482;2024-01-25T12:21:35;100577;;;-6.5;84
79347;BME280;68815;48.810;44.482;2024-01-25T12:24:37;100576;;;-6.7;83.7
79347;BME280;68815;48.810;44.482;2024-01-25T12:27:40;100571;;;-6.5;84.4
79347;BME280;68815;48.810;44.482;2024-01-25T12:30:42;100568;;;-6.8;84.1
79347;BME280;68815;48.810;44.482;2024-01-25T12:33:45;100568;;;-7.1;85.6
79347;BME280;68815;48.810;44.482;2024-01-25T12:36:47;100572;;;-6.8;85.8
79347;BME280;68815;48.810;44.482;2024-01-25T12:39:51;100575;;;-6.8;85.2
79347;BME280;68815;48.810;44.482;2024-01-25T12:42:53;100573;;;-6.8;85.3
79347;BME280;68815;48.810;44.482;2024-01-25T12:45:54;100586;;;-6.7;85.7
79347;BME280;68815;48.810;44.482;2024-01-25T12:48:56;100586;;;-7;86.6
79347;BME280;68815;48.810;44.482;2024-01-25T12:51:58;100579;;;-6.7;86.8
79347;BME280;68815;48.810;44.482;2024-01-25T12:55:01;100588;;;-6.6;86.5
79347;BME280;68815;48.810;44.482;2024-01-25T12:58:04;100583;;;-6.7;86.6
79347;BME280;68815;48.810;44.482;2024-01-25T13:01:06;100581;;;-6.5;86.1
79347;BME280;68815;48.810;44.482;2024-01-25T13:04:08;100577;;;-6.7;85.9
79347;BME280;68815;48.810;44.482;2024-01-25T13:07:09;100575;;;-6.9;87
79347;BME280;68815;48.810;44.482;2024-01-25T13:10:12;100574;;;-6.9;87
79347;BME280;68815;48.810;44.482;2024-01-25T13:13:13;100579;;;-7;86.8
79347;BME280;68815;48.810;44.482;2024-01-25T13:16:15;100577;;;-6.9;87.4
79347;BME280;68815;48.810;44.482;2024-01-25T13:19:17;100581;;;-6.7;87.1
79347;BME280;68815;48.810;44.482;2024-01-25T13:22:19;100589;;;-6.6;85.7
79347;BME280;68815;48.810;44.482;2024-01-25T13:25:21;100587;;;-7.1;86.3
79347;BME280;68815;48.810;44.482;2024-01-25T13:28:24;100587;;;-7.1;87.1
79347;BME280;68815;48.810;44.482;2024-01-25T13:31:25;100590;;;-7.3;87.6
79347;BME280;68815;48.810;44.482;2024-01-25T13:34:27;100593;;;-7.3;87.8
79347;BME280;68815;48.810;44.482;2024-01-25T13:37:29;100597;;;-7.3;87.7
79347;BME280;68815;48.810;44.482;2024-01-25T13:40:31;100591;;;-7.4;88
79347;BME280;68815;48.810;44.482;2024-01-25T13:43:33;100595;;;-7;87.5
79347;BME280;68815;48.810;44.482;2024-01-25T13:46:35;100593;;;-7.2;87.2
79347;BME280;68815;48.810;44.482;2024-01-25T13:49:37;100597;;;-7.4;87.3
79347;BME280;68815;48.810;44.482;2024-01-25T13:52:38;100596;;;-7.1;87.6
79347;BME280;68815;48.810;44.482;2024-01-25T13:55:40;100597;;;-6.8;86.6
79347;BME280;68815;48.810;44.482;2024-01-25T13:58:43;100600;;;-7.1;86.7
79347;BME280;68815;48.810;44.482;2024-01-25T14:01:44;100609;;;-7.1;87.2
79347;BME280;68815;48.810;44.482;2024-01-25T14:04:46;100615;;;-6.9;87.2
79347;BME280;68815;48.810;44.482;2024-01-25T14:07:48;100609;;;-6.8;87.1
79347;BME280;68815;48.810;44.482;2024-01-25T14:10:50;100614;;;-6.7;86.2
79347;BME280;68815;48.810;44.482;2024-01-25T14:13:52;100609;;;-6.8;86.4
79347;BME280;68815;48.810;44.482;2024-01-25T14:16:54;100602;;;-6.7;86.4
79347;BME280;68815;48.810;44.482;2024-01-25T14:19:55;100604;;;-7;86.9
79347;BME280;68815;48.810;44.482;2024-01-25T14:22:57;100607;;;-6.9;87
79347;BME280;68815;48.810;44.482;2024-01-25T14:26:00;100616;;;-6.8;87.8
79347;BME280;68815;48.810;44.482;2024-01-25T14:29:01;100606;;;-6.6;87.5
79347;BME280;68815;48.810;44.482;2024-01-25T14:32:04;100601;;;-6.6;88
79347;BME280;68815;48.810;44.482;2024-01-25T14:35:07;100599;;;-6.6;88.7
79347;BME280;68815;48.810;44.482;2024-01-25T14:38:09;100606;;;-6.8;89
79347;BME280;68815;48.810;44.482;2024-01-25T14:41:11;100615;;;-6.8;88.6
79347;BME280;68815;48.810;44.482;2024-01-25T14:44:13;100608;;;-6.7;88.7
79347;BME280;68815;48.810;44.482;2024-01-25T14:47:15;100613;;;-6.9;89
79347;BME280;68815;48.810;44.482;2024-01-25T14:50:17;100601;;;-6.8;89.3
79347;BME280;68815;48.810;44.482;2024-01-25T14:53:19;100606;;;-6.4;88.5
79347;BME280;68815;48.810;44.482;2024-01-25T14:56:21;100607;;;-6.4;87.4
79347;BME280;68815;48.810;44.482;2024-01-25T14:59:23;100611;;;-6.6;87.9
79347;BME280;68815;48.810;44.482;2024-01-25T15:02:25;100605;;;-6.9;89.5
79347;BME280;68815;48.810;44.482;2024-01-25T15:05:27;100604;;;-6.9;89.9
79347;BME280;68815;48.810;44.482;2024-01-25T15:08:29;100612;;;-6.6;89.7
79347;BME280;68815;48.810;44.482;2024-01-25T15:11:31;100613;;;-6.5;89.2
79347;BME280;68815;48.810;44.482;2024-01-25T15:14:33;100609;;;-6.6;89.4
79347;BME280;68815;48.810;44.482;2024-01-25T15:17:35;100615;;;-6.7;90.3
79347;BME280;68815;48.810;44.482;2024-01-25T15:20:36;100614;;;-6.5;91.2
79347;BME280;68815;48.810;44.482;2024-01-25T15:23:38;100619;;;-6.6;90.7
79347;BME280;68815;48.810;44.482;2024-01-25T15:26:40;100612;;;-6.6;90.7
79347;BME280;68815;48.810;44.482;2024-01-25T15:29:42;100612;;;-6.7;90.9
79347;BME280;68815;48.810;44.482;2024-01-25T15:32:46;100619;;;-6.8;91.9
79347;BME280;68815;48.810;44.482;2024-01-25T15:35:47;100610;;;-6.8;92.4
79347;BME280;68815;48.810;44.482;2024-01-25T15:38:49;100612;;;-6.6;92.5
79347;BME280;68815;48.810;44.482;2024-01-25T15:41:51;100602;;;-6.6;92.3
79347;BME280;68815;48.810;44.482;2024-01-25T15:44:54;100603;;;-6.7;92.9
79347;BME280;68815;48.810;44.482;2024-01-25T15:47:55;100606;;;-6.6;93
79347;BME280;68815;48.810;44.482;2024-01-25T15:50:57;100603;;;-6.5;93.1
79347;BME280;68815;48.810;44.482;2024-01-25T15:53:59;100601;;;-6.5;93
79347;BME280;68815;48.810;44.482;2024-01-25T15:57:01;100597;;;-6.4;93.3
79347;BME280;68815;48.810;44.482;2024-01-25T16:00:04;100599;;;-6.3;92.9
79347;BME280;68815;48.810;44.482;2024-01-25T16:03:07;100591;;;-6.2;92.4
79347;BME280;68815;48.810;44.482;2024-01-25T16:06:09;100592;;;-6.2;92.4
79347;BME280;68815;48.810;44.482;2024-01-25T16:09:12;100602;;;-6.3;93.2
79347;BME280;68815;48.810;44.482;2024-01-25T16:12:14;100604;;;-6.2;93.5
79347;BME280;68815;48.810;44.482;2024-01-25T16:15:16;100604;;;-6.2;94.2
79347;BME280;68815;48.810;44.482;2024-01-25T16:18:18;100605;;;-5.9;93.4
79347;BME280;68815;48.810;44.482;2024-01-25T16:21:20;100610;;;-6;93.3
79347;BME280;68815;48.810;44.482;2024-01-25T16:24:22;100605;;;-5.9;93
79347;BME280;68815;48.810;44.482;2024-01-25T16:27:24;100605;;;-6;93.6
79347;BME280;68815;48.810;44.482;2024-01-25T16:30:26;100606;;;-5.9;94
79347;BME280;68815;48.810;44.482;2024-01-25T16:33:29;100603;;;-5.9;94.2
79347;BME280;68815;48.810;44.482;2024-01-25T16:36:31;100609;;;-5.8;94.1
79347;BME280;68815;48.810;44.482;2024-01-25T16:39:33;100606;;;-5.7;94.4
79347;BME280;68815;48.810;44.482;2024-01-25T16:42:35;100601;;;-5.6;93.5
79347;BME280;68815;48.810;44.482;2024-01-25T16:45:37;100602;;;-5.5;92.9